KACY/ACY METAR and TAF weather

Enter ICAO airport designator
Station Type Date Time Source
KACY METAR 2020/01/22 11:54 UTC NOAA

KACY 221154Z AUTO 31004KT 10SM CLR M07/M12 A3047 RMK AO2 SLP319 T10671122 11050 21078 53012 TSNO


Station Type Date Time Source
KACY Decoded METAR 2020/01/22 11:54 UTC NOAA

ATLANTIC CITY INTERNATIONAL, NJ, United States (KACY) 39-28N 74-35W 35M
Jan 22, 2020 - 06:54 AM EST / 2020.01.22 1154 UTC
Wind: from the NW (310 degrees) at 5 MPH (4 KT):0
Visibility: 10 mile(s):0
Sky conditions: clear
Temperature: 19.9 F (-6.7 C)
Windchill: 12 F (-11 C):1
Dew Point: 10.0 F (-12.2 C)
Relative Humidity: 64%
Pressure (altimeter): 30.47 in. Hg (1031 hPa)
Pressure tendency: 0.04 inches (1.2 hPa) higher than three hours ago
ob: KACY 221154Z AUTO 31004KT 10SM CLR M07/M12 A3047 RMK AO2 SLP319 T10671122 11050 21078 53012 TSNO
cycle: 12

Station Type Date Time Source
KACY TAF 2020/01/22 12:25 UTC NOAA

TAF KACY 221120Z 2212/2312 VRB02KT P6SM SKC
FM221400 35005KT P6SM SKC
FM222100 11004KT P6SM SKC
FM230000 VRB02KT P6SM SKC

Example: see airport list